Aviation Digital Data Service (ADDS)

Output produced by METARs form (2029 UTC 09 February 2016)
found at http://www.aviationweather.gov/adds/metars/
 
KSPI 091730Z 0918/1018 31014G22KT 6SM -SN BR OVC025 
     TEMPO 0918/0920 3SM -SN BR 
     FM092000 31014G22KT P6SM VCSH OVC025 
     FM092300 31011KT P6SM BKN025